| time (UTC) | temp C | wind direction | speed KPH | gust KPH | rain 1hr cm | rain 24hr cm | rain mn cm | humidity % | barometer mb |
| 20260508013816 | 9 | 292 | 3.2 | 3.2 | 0.00 | 0.00 | 0.00 | 59 | 1010.5 |
| 20260508012319 | 9 | 297 | 3.2 | 4.8 | 0.00 | 0.00 | 0.00 | 60 | 1010.5 |
| 20260508010817 | 9 | 298 | 3.2 | 4.8 | 0.00 | 0.00 | 0.00 | 61 | 1009.8 |
| 20260508005317 | 10 | 298 | 3.2 | 4.8 | 0.00 | 0.00 | 0.00 | 58 | 1010.2 |
| 20260508003816 | 10 | 297 | 3.2 | 8.0 | 0.00 | 0.00 | 0.00 | 57 | 1010.2 |
| 20260508002427 | 10 | 308 | 8.0 | 11.3 | 0.00 | 0.00 | 0.00 | 57 | 1009.8 |
| 20260508000926 | 10 | 300 | 8.0 | 8.0 | 0.00 | 0.00 | 0.00 | 57 | 1009.8 |
| 20260507235317 | 11 | 314 | 8.0 | 11.3 | 0.00 | 0.00 | 0.00 | 55 | 1009.8 |
| 20260507233816 | 11 | 325 | 4.8 | 9.7 | 0.00 | 0.00 | 0.00 | 53 | 1009.5 |
| 20260507232319 | 11 | 328 | 4.8 | 14.5 | 0.00 | 0.00 | 0.00 | 51 | 1009.8 |
| 20260507230817 | 12 | 350 | 4.8 | 14.5 | 0.00 | 0.00 | 0.00 | 51 | 1009.8 |
| 20260507225319 | 12 | 341 | 8.0 | 12.9 | 0.00 | 0.00 | 0.00 | 46 | 1009.8 |
| 20260507223817 | 12 | 341 | 11.3 | 14.5 | 0.00 | 0.00 | 0.00 | 45 | 1009.8 |
| 20260507222318 | 12 | 24 | 9.7 | 19.3 | 0.00 | 0.00 | 0.00 | 45 | 1009.5 |
| 20260507220817 | 12 | 11 | 9.7 | 20.9 | 0.00 | 0.00 | 0.00 | 45 | 1009.8 |
| 20260507215320 | 12 | 319 | 16.1 | 24.1 | 0.00 | 0.00 | 0.00 | 49 | 1009.5 |
| 20260507213816 | 12 | 336 | 12.9 | 20.9 | 0.00 | 0.00 | 0.00 | 45 | 1009.5 |
| 20260507212317 | 12 | 354 | 19.3 | 29.0 | 0.00 | 0.00 | 0.00 | 45 | 1009.1 |
| 20260507210817 | 13 | 313 | 16.1 | 22.5 | 0.00 | 0.00 | 0.00 | 49 | 1009.5 |
| 20260507205318 | 11 | 285 | 14.5 | 19.3 | 0.00 | 0.00 | 0.00 | 55 | 1009.5 |
| 20260507203816 | 12 | 311 | 12.9 | 16.1 | 0.00 | 0.00 | 0.00 | 55 | 1009.5 |
| 20260507202317 | 11 | 288 | 9.7 | 12.9 | 0.00 | 0.00 | 0.00 | 54 | 1009.5 |
| 20260507200817 | 11 | 263 | 16.1 | 22.5 | 0.00 | 0.00 | 0.00 | 68 | 1009.5 |
| 20260507195318 | 11 | 258 | 12.9 | 22.5 | 0.00 | 0.00 | 0.00 | 72 | 1009.7 |
| 20260507193816 | 10 | 260 | 12.9 | 19.3 | 0.00 | 0.00 | 0.00 | 76 | 1010.0 |
| 20260507192317 | 10 | 262 | 16.1 | 25.7 | 0.00 | 0.00 | 0.00 | 72 | 1009.9 |
| 20260507190816 | 10 | 249 | 11.3 | 19.3 | 0.00 | 0.00 | 0.00 | 77 | 1010.2 |
| 20260507185317 | 10 | 261 | 14.5 | 22.5 | 0.00 | 0.00 | 0.00 | 77 | 1010.2 |
| 20260507183817 | 10 | 246 | 16.1 | 20.9 | 0.00 | 0.00 | 0.00 | 78 | 1010.5 |
| 20260507182320 | 10 | 256 | 14.5 | 25.7 | 0.00 | 0.00 | 0.00 | 74 | 1010.5 |
| 20260507180816 | 10 | 252 | 16.1 | 24.1 | 0.00 | 0.00 | 0.00 | 71 | 1010.5 |
| 20260507175319 | 10 | 247 | 14.5 | 24.1 | 0.00 | 0.00 | 0.00 | 73 | 1010.5 |
| 20260507173817 | 10 | 240 | 14.5 | 20.9 | 0.00 | 0.00 | 0.00 | 74 | 1010.8 |
| 20260507172317 | 10 | 237 | 11.3 | 16.1 | 0.00 | 0.00 | 0.00 | 78 | 1010.8 |
| 20260507170817 | 10 | 223 | 9.7 | 14.5 | 0.00 | 0.00 | 0.00 | 81 | 1011.2 |
| 20260507165319 | 10 | 223 | 11.3 | 14.5 | 0.00 | 0.00 | 0.00 | 79 | 1011.2 |
| 20260507163816 | 10 | 212 | 11.3 | 14.5 | 0.00 | 0.00 | 0.00 | 77 | 1010.8 |
| 20260507162317 | 10 | 211 | 8.0 | 12.9 | 0.00 | 0.00 | 0.00 | 77 | 1011.2 |
| 20260507160816 | 11 | 213 | 11.3 | 12.9 | 0.00 | 0.00 | 0.00 | 84 | 1011.2 |
| 20260507155316 | 10 | 196 | 8.0 | 11.3 | 0.00 | 0.00 | 0.00 | 84 | 1011.2 |
| 20260507153816 | 10 | 182 | 4.8 | 9.7 | 0.00 | 0.00 | 0.00 | 85 | 1011.2 |
| 20260507152318 | 10 | 176 | 4.8 | 9.7 | 0.00 | 0.00 | 0.00 | 88 | 1011.4 |
| 20260507150817 | 10 | 198 | 3.2 | 8.0 | 0.00 | 0.00 | 0.00 | 87 | 1011.2 |
| 20260507145318 | 10 | 213 | 8.0 | 9.7 | 0.00 | 0.00 | 0.00 | 81 | 1011.2 |
| 20260507143816 | 10 | 206 | 8.0 | 9.7 | 0.00 | 0.00 | 0.00 | 84 | 1011.5 |
| 20260507142318 | 10 | 225 | 4.8 | 8.0 | 0.00 | 0.00 | 0.00 | 81 | 1011.5 |
| 20260507140817 | 10 | 227 | 4.8 | 8.0 | 0.00 | 0.00 | 0.00 | 83 | 1011.5 |
| 20260507135318 | 10 | 223 | 3.2 | 8.0 | 0.00 | 0.00 | 0.00 | 82 | 1011.5 |
| 20260507133816 | 11 | 324 | 1.6 | 3.2 | 0.00 | 0.00 | 0.00 | 69 | 1011.2 |
| 20260507132317 | 11 | 349 | 0.0 | 1.6 | 0.00 | 0.00 | 0.00 | 71 | 1011.5 |
| 20260507130817 | 10 | 355 | 1.6 | 3.2 | 0.00 | 0.00 | 0.00 | 79 | 1011.5 |
| 20260507125320 | 9 | 337 | 1.6 | 3.2 | 0.00 | 0.00 | 0.00 | 80 | 1011.5 |
| 20260507123816 | 8 | 348 | 0.0 | 3.2 | 0.00 | 0.00 | 0.00 | 85 | 1011.5 |
| 20260507122317 | 8 | 336 | 1.6 | 3.2 | 0.00 | 0.00 | 0.00 | 87 | 1011.9 |
| 20260507120817 | 7 | 337 | 3.2 | 3.2 | 0.00 | 0.00 | 0.00 | 89 | 1011.5 |
| 20260507115324 | 6 | 337 | 3.2 | 4.8 | 0.00 | 0.00 | 0.00 | 92 | 1011.5 |
| 20260507113816 | 6 | 335 | 3.2 | 8.0 | 0.00 | 0.00 | 0.00 | 92 | 1011.5 |
| 20260507112317 | 5 | 333 | 4.8 | 8.0 | 0.00 | 0.00 | 0.00 | 92 | 1011.3 |
| 20260507110816 | 5 | 335 | 4.8 | 4.8 | 0.00 | 0.00 | 0.00 | 90 | 1011.4 |
| 20260507105317 | 6 | 336 | 4.8 | 8.0 | 0.00 | 0.00 | 0.00 | 89 | 1011.2 |
| 20260507103817 | 6 | 337 | 4.8 | 8.0 | 0.00 | 0.00 | 0.00 | 87 | 1010.8 |
| 20260507102317 | 6 | 333 | 3.2 | 8.0 | 0.00 | 0.00 | 0.00 | 87 | 1011.2 |
| 20260507100817 | 5 | 334 | 3.2 | 4.8 | 0.00 | 0.00 | 0.00 | 88 | 1010.8 |
| 20260507095319 | 5 | 337 | 3.2 | 4.8 | 0.00 | 0.00 | 0.00 | 90 | 1010.8 |
| 20260507093817 | 6 | 321 | 3.2 | 4.8 | 0.00 | 0.00 | 0.00 | 89 | 1010.8 |
| 20260507092319 | 6 | 318 | 1.6 | 3.2 | 0.00 | 0.00 | 0.00 | 90 | 1011.2 |
| 20260507090817 | 6 | 310 | 4.8 | 8.0 | 0.00 | 0.00 | 0.00 | 90 | 1011.2 |
| 20260507085318 | 7 | 300 | 8.0 | 9.7 | 0.00 | 0.00 | 0.00 | 84 | 1010.8 |
| 20260507083817 | 7 | 284 | 3.2 | 3.2 | 0.00 | 0.00 | 0.00 | 91 | 1010.8 |
| 20260507082318 | 7 | 294 | 3.2 | 4.8 | 0.00 | 0.00 | 0.00 | 94 | 1011.2 |
| 20260507080816 | 7 | 261 | 4.8 | 8.0 | 0.00 | 0.00 | 0.00 | 93 | 1010.8 |
| 20260507075317 | 7 | 264 | 4.8 | 11.3 | 0.00 | 0.00 | 0.00 | 93 | 1011.2 |
| 20260507073818 | 7 | 249 | 3.2 | 4.8 | 0.00 | 0.00 | 0.00 | 93 | 1010.8 |
| 20260507072318 | 8 | 233 | 11.3 | 14.5 | 0.00 | 0.00 | 0.00 | 92 | 1011.2 |
| 20260507070817 | 8 | 246 | 9.7 | 12.9 | 0.00 | 0.03 | 0.00 | 91 | 1010.8 |
| 20260507065317 | 8 | 236 | 8.0 | 14.5 | 0.00 | 0.03 | 0.00 | 89 | 1011.2 |
| 20260507063816 | 8 | 223 | 11.3 | 14.5 | 0.00 | 0.03 | 0.00 | 89 | 1011.2 |
| 20260507062319 | 8 | 201 | 4.8 | 12.9 | 0.00 | 0.03 | 0.00 | 90 | 1011.2 |
| 20260507060816 | 8 | 212 | 9.7 | 14.5 | 0.00 | 0.03 | 0.00 | 87 | 1011.2 |
| 20260507055318 | 8 | 199 | 8.0 | 12.9 | 0.00 | 0.03 | 0.00 | 87 | 1011.5 |
| 20260507053822 | 8 | 222 | 9.7 | 14.5 | 0.00 | 0.03 | 0.00 | 86 | 1011.9 |
| 20260507052316 | 7 | 188 | 11.3 | 14.5 | 0.00 | 0.05 | 0.00 | 87 | 1011.9 |
| 20260507050816 | 7 | 207 | 9.7 | 16.1 | 0.00 | 0.05 | 0.00 | 85 | 1011.9 |
| 20260507045318 | 7 | 181 | 11.3 | 14.5 | 0.00 | 0.05 | 0.00 | 86 | 1011.9 |
| 20260507043816 | 7 | 217 | 11.3 | 14.5 | 0.00 | 0.08 | 0.00 | 87 | 1011.9 |
| 20260507042318 | 7 | 207 | 11.3 | 16.1 | 0.00 | 0.08 | 0.00 | 86 | 1012.2 |
| 20260507040816 | 7 | 215 | 11.3 | 14.5 | 0.00 | 0.10 | 0.00 | 86 | 1012.2 |
| 20260507035319 | 7 | 204 | 8.0 | 12.9 | 0.00 | 0.10 | 0.10 | 84 | 1012.2 |
| 20260507033817 | 7 | 199 | 8.0 | 16.1 | 0.00 | 0.15 | 0.10 | 85 | 1012.5 |
| 20260507032319 | 7 | 209 | 8.0 | 12.9 | 0.00 | 0.20 | 0.10 | 86 | 1012.5 |
| 20260507030816 | 7 | 234 | 8.0 | 12.9 | 0.00 | 0.25 | 0.10 | 86 | 1012.5 |
| 20260507025318 | 7 | 158 | 11.3 | 19.3 | 0.00 | 0.30 | 0.10 | 85 | 1012.8 |
| 20260507023816 | 7 | 189 | 14.5 | 19.3 | 0.00 | 0.33 | 0.10 | 85 | 1012.5 |
| 20260507022317 | 7 | 206 | 11.3 | 14.5 | 0.00 | 0.33 | 0.10 | 85 | 1012.5 |
| 20260507020816 | 7 | 204 | 9.7 | 12.9 | 0.00 | 0.36 | 0.10 | 85 | 1012.2 |
| 20260507015316 | 8 | 181 | 8.0 | 16.1 | 0.00 | 0.36 | 0.10 | 81 | 1012.5 |